sensor_id;sensor_type;location;lat;lon;timestamp;P1;durP1;ratioP1;P2;durP2;ratioP2
14191;SDS011;7177;48.572;7.838;2023-03-21T00:01:58;6.90;;;6.20;;
14191;SDS011;7177;48.572;7.838;2023-03-21T00:04:24;9.63;;;7.67;;
14191;SDS011;7177;48.572;7.838;2023-03-21T00:06:51;7.97;;;6.90;;
14191;SDS011;7177;48.572;7.838;2023-03-21T00:09:17;12.90;;;7.37;;
14191;SDS011;7177;48.572;7.838;2023-03-21T00:11:43;7.77;;;6.80;;
14191;SDS011;7177;48.572;7.838;2023-03-21T00:14:09;10.33;;;7.40;;
14191;SDS011;7177;48.572;7.838;2023-03-21T00:16:39;8.90;;;7.43;;
14191;SDS011;7177;48.572;7.838;2023-03-21T00:19:04;7.73;;;6.93;;
14191;SDS011;7177;48.572;7.838;2023-03-21T00:21:31;8.90;;;7.03;;
14191;SDS011;7177;48.572;7.838;2023-03-21T00:23:58;8.50;;;7.10;;
14191;SDS011;7177;48.572;7.838;2023-03-21T00:26:24;8.50;;;7.17;;
14191;SDS011;7177;48.572;7.838;2023-03-21T00:28:50;8.53;;;6.80;;
14191;SDS011;7177;48.572;7.838;2023-03-21T00:31:16;7.23;;;6.30;;
14191;SDS011;7177;48.572;7.838;2023-03-21T00:33:42;9.70;;;6.43;;
14191;SDS011;7177;48.572;7.838;2023-03-21T00:36:08;9.10;;;7.47;;
14191;SDS011;7177;48.572;7.838;2023-03-21T00:38:35;11.47;;;7.67;;
14191;SDS011;7177;48.572;7.838;2023-03-21T00:41:04;12.63;;;7.77;;
14191;SDS011;7177;48.572;7.838;2023-03-21T00:43:30;9.77;;;8.07;;
14191;SDS011;7177;48.572;7.838;2023-03-21T00:45:57;10.17;;;8.20;;
14191;SDS011;7177;48.572;7.838;2023-03-21T00:48:23;9.27;;;7.50;;
14191;SDS011;7177;48.572;7.838;2023-03-21T00:50:50;9.83;;;8.10;;
14191;SDS011;7177;48.572;7.838;2023-03-21T00:53:18;9.63;;;7.57;;
14191;SDS011;7177;48.572;7.838;2023-03-21T00:55:44;8.83;;;7.07;;
14191;SDS011;7177;48.572;7.838;2023-03-21T00:58:10;9.40;;;7.20;;
14191;SDS011;7177;48.572;7.838;2023-03-21T01:00:35;8.77;;;7.10;;
14191;SDS011;7177;48.572;7.838;2023-03-21T01:03:02;7.33;;;6.57;;
14191;SDS011;7177;48.572;7.838;2023-03-21T01:05:32;8.27;;;6.83;;
14191;SDS011;7177;48.572;7.838;2023-03-21T01:08:20;8.43;;;6.83;;
14191;SDS011;7177;48.572;7.838;2023-03-21T01:10:46;8.57;;;7.33;;
14191;SDS011;7177;48.572;7.838;2023-03-21T01:13:14;7.23;;;5.93;;
14191;SDS011;7177;48.572;7.838;2023-03-21T01:15:42;8.20;;;6.53;;
14191;SDS011;7177;48.572;7.838;2023-03-21T01:18:14;7.43;;;6.60;;
14191;SDS011;7177;48.572;7.838;2023-03-21T01:20:41;9.73;;;7.20;;
14191;SDS011;7177;48.572;7.838;2023-03-21T01:23:08;10.20;;;7.67;;
14191;SDS011;7177;48.572;7.838;2023-03-21T01:25:35;8.73;;;7.20;;
14191;SDS011;7177;48.572;7.838;2023-03-21T01:28:01;8.17;;;7.00;;
14191;SDS011;7177;48.572;7.838;2023-03-21T01:30:27;8.10;;;6.77;;
14191;SDS011;7177;48.572;7.838;2023-03-21T01:32:52;9.43;;;6.53;;
14191;SDS011;7177;48.572;7.838;2023-03-21T01:35:18;7.60;;;6.87;;
14191;SDS011;7177;48.572;7.838;2023-03-21T01:37:44;7.17;;;6.47;;
14191;SDS011;7177;48.572;7.838;2023-03-21T01:40:20;7.60;;;6.30;;
14191;SDS011;7177;48.572;7.838;2023-03-21T01:42:48;9.27;;;6.40;;
14191;SDS011;7177;48.572;7.838;2023-03-21T01:48:17;7.63;;;6.53;;
14191;SDS011;7177;48.572;7.838;2023-03-21T01:50:44;8.23;;;5.30;;
14191;SDS011;7177;48.572;7.838;2023-03-21T01:53:11;8.00;;;5.43;;
14191;SDS011;7177;48.572;7.838;2023-03-21T01:55:37;7.82;;;4.70;;
14191;SDS011;7177;48.572;7.838;2023-03-21T01:58:03;5.83;;;4.90;;
14191;SDS011;7177;48.572;7.838;2023-03-21T02:00:31;6.35;;;4.38;;
14191;SDS011;7177;48.572;7.838;2023-03-21T02:02:58;5.90;;;4.00;;
14191;SDS011;7177;48.572;7.838;2023-03-21T02:05:31;5.10;;;4.60;;
14191;SDS011;7177;48.572;7.838;2023-03-21T02:08:18;5.07;;;4.27;;
14191;SDS011;7177;48.572;7.838;2023-03-21T02:10:45;5.97;;;4.17;;
14191;SDS011;7177;48.572;7.838;2023-03-21T02:13:12;4.27;;;3.87;;
14191;SDS011;7177;48.572;7.838;2023-03-21T02:15:39;5.10;;;4.20;;
14191;SDS011;7177;48.572;7.838;2023-03-21T02:18:16;5.60;;;3.90;;
14191;SDS011;7177;48.572;7.838;2023-03-21T02:21:10;6.60;;;4.33;;
14191;SDS011;7177;48.572;7.838;2023-03-21T02:40:55;4.50;;;4.10;;
14191;SDS011;7177;48.572;7.838;2023-03-21T02:43:51;5.30;;;4.17;;
14191;SDS011;7177;48.572;7.838;2023-03-21T02:46:31;4.57;;;4.10;;
14191;SDS011;7177;48.572;7.838;2023-03-21T02:49:06;5.78;;;4.43;;
14191;SDS011;7177;48.572;7.838;2023-03-21T02:51:36;4.40;;;4.00;;
14191;SDS011;7177;48.572;7.838;2023-03-21T02:54:06;5.43;;;4.20;;
14191;SDS011;7177;48.572;7.838;2023-03-21T02:56:37;4.82;;;4.32;;
14191;SDS011;7177;48.572;7.838;2023-03-21T02:59:04;5.40;;;4.50;;
14191;SDS011;7177;48.572;7.838;2023-03-21T03:01:31;5.97;;;4.03;;
14191;SDS011;7177;48.572;7.838;2023-03-21T03:03:57;5.50;;;4.20;;
14191;SDS011;7177;48.572;7.838;2023-03-21T03:06:26;4.68;;;4.20;;
14191;SDS011;7177;48.572;7.838;2023-03-21T03:12:30;4.85;;;4.35;;
14191;SDS011;7177;48.572;7.838;2023-03-21T03:20:44;6.65;;;4.90;;
14191;SDS011;7177;48.572;7.838;2023-03-21T03:25:51;5.25;;;4.45;;
14191;SDS011;7177;48.572;7.838;2023-03-21T03:28:37;4.82;;;4.32;;
14191;SDS011;7177;48.572;7.838;2023-03-21T03:31:05;5.05;;;4.20;;
14191;SDS011;7177;48.572;7.838;2023-03-21T03:33:32;4.68;;;4.15;;
14191;SDS011;7177;48.572;7.838;2023-03-21T03:36:02;6.75;;;4.47;;
14191;SDS011;7177;48.572;7.838;2023-03-21T03:38:29;5.32;;;4.20;;
14191;SDS011;7177;48.572;7.838;2023-03-21T03:41:03;6.18;;;4.80;;
14191;SDS011;7177;48.572;7.838;2023-03-21T03:43:40;5.50;;;4.35;;
14191;SDS011;7177;48.572;7.838;2023-03-21T03:46:13;5.90;;;4.88;;
14191;SDS011;7177;48.572;7.838;2023-03-21T03:48:45;4.88;;;4.18;;
14191;SDS011;7177;48.572;7.838;2023-03-21T03:51:19;4.90;;;4.40;;
14191;SDS011;7177;48.572;7.838;2023-03-21T03:53:57;6.53;;;5.60;;
14191;SDS011;7177;48.572;7.838;2023-03-21T03:56:27;6.32;;;5.32;;
14191;SDS011;7177;48.572;7.838;2023-03-21T03:58:53;5.18;;;4.68;;
14191;SDS011;7177;48.572;7.838;2023-03-21T04:01:21;5.75;;;4.57;;
14191;SDS011;7177;48.572;7.838;2023-03-21T04:03:47;5.60;;;5.10;;
14191;SDS011;7177;48.572;7.838;2023-03-21T04:06:13;5.82;;;4.75;;
14191;SDS011;7177;48.572;7.838;2023-03-21T04:08:40;5.05;;;4.55;;
14191;SDS011;7177;48.572;7.838;2023-03-21T04:11:06;4.80;;;4.30;;
14191;SDS011;7177;48.572;7.838;2023-03-21T04:13:32;6.53;;;4.20;;
14191;SDS011;7177;48.572;7.838;2023-03-21T04:15:58;6.05;;;5.45;;
14191;SDS011;7177;48.572;7.838;2023-03-21T04:18:24;10.95;;;7.22;;
14191;SDS011;7177;48.572;7.838;2023-03-21T04:20:50;12.90;;;8.90;;
14191;SDS011;7177;48.572;7.838;2023-03-21T04:23:17;13.68;;;9.25;;
14191;SDS011;7177;48.572;7.838;2023-03-21T04:25:43;11.68;;;8.45;;
14191;SDS011;7177;48.572;7.838;2023-03-21T04:28:10;6.43;;;5.45;;
14191;SDS011;7177;48.572;7.838;2023-03-21T04:30:36;7.75;;;6.18;;
14191;SDS011;7177;48.572;7.838;2023-03-21T04:33:03;6.65;;;5.47;;
14191;SDS011;7177;48.572;7.838;2023-03-21T04:35:28;5.87;;;4.67;;
14191;SDS011;7177;48.572;7.838;2023-03-21T04:37:54;5.40;;;4.80;;
14191;SDS011;7177;48.572;7.838;2023-03-21T04:40:20;5.27;;;4.80;;
14191;SDS011;7177;48.572;7.838;2023-03-21T04:42:46;5.67;;;4.70;;
14191;SDS011;7177;48.572;7.838;2023-03-21T04:45:12;5.78;;;5.05;;
14191;SDS011;7177;48.572;7.838;2023-03-21T04:47:39;6.18;;;5.25;;
14191;SDS011;7177;48.572;7.838;2023-03-21T04:50:05;6.85;;;4.82;;
14191;SDS011;7177;48.572;7.838;2023-03-21T04:52:31;6.38;;;5.45;;
14191;SDS011;7177;48.572;7.838;2023-03-21T04:54:57;6.30;;;5.57;;
14191;SDS011;7177;48.572;7.838;2023-03-21T04:57:22;6.50;;;5.13;;
14191;SDS011;7177;48.572;7.838;2023-03-21T04:59:48;6.37;;;5.20;;
14191;SDS011;7177;48.572;7.838;2023-03-21T05:02:13;6.30;;;5.43;;
14191;SDS011;7177;48.572;7.838;2023-03-21T05:04:39;6.63;;;5.40;;
14191;SDS011;7177;48.572;7.838;2023-03-21T05:07:05;7.13;;;5.50;;
14191;SDS011;7177;48.572;7.838;2023-03-21T05:09:30;6.63;;;5.47;;
14191;SDS011;7177;48.572;7.838;2023-03-21T05:11:56;6.27;;;5.17;;
14191;SDS011;7177;48.572;7.838;2023-03-21T05:14:23;6.80;;;5.50;;
14191;SDS011;7177;48.572;7.838;2023-03-21T05:16:49;6.72;;;5.57;;
14191;SDS011;7177;48.572;7.838;2023-03-21T05:19:24;6.57;;;5.03;;
14191;SDS011;7177;48.572;7.838;2023-03-21T05:21:58;6.78;;;5.50;;
14191;SDS011;7177;48.572;7.838;2023-03-21T05:24:28;7.40;;;5.68;;
14191;SDS011;7177;48.572;7.838;2023-03-21T05:26:54;10.53;;;6.10;;
14191;SDS011;7177;48.572;7.838;2023-03-21T05:29:20;8.90;;;6.20;;
14191;SDS011;7177;48.572;7.838;2023-03-21T05:31:46;6.27;;;5.63;;
14191;SDS011;7177;48.572;7.838;2023-03-21T05:34:11;6.80;;;5.43;;
14191;SDS011;7177;48.572;7.838;2023-03-21T05:36:37;6.80;;;6.03;;
14191;SDS011;7177;48.572;7.838;2023-03-21T05:39:03;5.90;;;5.00;;
14191;SDS011;7177;48.572;7.838;2023-03-21T05:41:29;6.68;;;5.63;;
14191;SDS011;7177;48.572;7.838;2023-03-21T05:43:55;6.43;;;5.43;;
14191;SDS011;7177;48.572;7.838;2023-03-21T05:46:21;6.10;;;5.50;;
14191;SDS011;7177;48.572;7.838;2023-03-21T05:48:46;8.47;;;5.57;;
14191;SDS011;7177;48.572;7.838;2023-03-21T05:51:12;8.30;;;6.00;;
14191;SDS011;7177;48.572;7.838;2023-03-21T05:53:37;6.93;;;5.87;;
14191;SDS011;7177;48.572;7.838;2023-03-21T05:56:03;6.10;;;5.50;;
14191;SDS011;7177;48.572;7.838;2023-03-21T05:58:29;6.80;;;5.23;;
14191;SDS011;7177;48.572;7.838;2023-03-21T06:00:54;8.30;;;6.30;;
14191;SDS011;7177;48.572;7.838;2023-03-21T06:03:20;5.93;;;5.33;;
14191;SDS011;7177;48.572;7.838;2023-03-21T06:05:45;6.87;;;5.40;;
14191;SDS011;7177;48.572;7.838;2023-03-21T06:08:11;6.73;;;5.27;;
14191;SDS011;7177;48.572;7.838;2023-03-21T06:10:37;7.30;;;5.63;;
14191;SDS011;7177;48.572;7.838;2023-03-21T06:13:02;8.03;;;5.53;;
14191;SDS011;7177;48.572;7.838;2023-03-21T06:15:28;7.85;;;5.82;;
14191;SDS011;7177;48.572;7.838;2023-03-21T06:17:54;5.70;;;5.07;;
14191;SDS011;7177;48.572;7.838;2023-03-21T06:20:20;7.73;;;5.90;;
14191;SDS011;7177;48.572;7.838;2023-03-21T06:22:46;8.90;;;5.83;;
14191;SDS011;7177;48.572;7.838;2023-03-21T06:25:11;7.10;;;6.07;;
14191;SDS011;7177;48.572;7.838;2023-03-21T06:27:37;10.35;;;6.43;;
14191;SDS011;7177;48.572;7.838;2023-03-21T06:30:03;8.77;;;6.20;;
14191;SDS011;7177;48.572;7.838;2023-03-21T06:32:30;10.18;;;6.07;;
14191;SDS011;7177;48.572;7.838;2023-03-21T06:34:55;6.97;;;6.27;;
14191;SDS011;7177;48.572;7.838;2023-03-21T06:37:21;8.93;;;6.80;;
14191;SDS011;7177;48.572;7.838;2023-03-21T06:39:47;8.60;;;6.60;;
14191;SDS011;7177;48.572;7.838;2023-03-21T06:42:13;10.60;;;7.13;;
14191;SDS011;7177;48.572;7.838;2023-03-21T06:44:39;8.25;;;6.57;;
14191;SDS011;7177;48.572;7.838;2023-03-21T06:47:05;11.03;;;7.37;;
14191;SDS011;7177;48.572;7.838;2023-03-21T06:49:32;8.38;;;7.03;;
14191;SDS011;7177;48.572;7.838;2023-03-21T06:51:58;16.88;;;8.25;;
14191;SDS011;7177;48.572;7.838;2023-03-21T06:54:24;9.40;;;7.30;;
14191;SDS011;7177;48.572;7.838;2023-03-21T06:56:49;9.93;;;7.67;;
14191;SDS011;7177;48.572;7.838;2023-03-21T06:59:15;8.77;;;6.80;;
14191;SDS011;7177;48.572;7.838;2023-03-21T07:01:41;10.50;;;7.33;;
14191;SDS011;7177;48.572;7.838;2023-03-21T07:04:09;10.33;;;6.67;;
14191;SDS011;7177;48.572;7.838;2023-03-21T07:06:34;8.60;;;6.90;;
14191;SDS011;7177;48.572;7.838;2023-03-21T07:09:01;7.80;;;6.67;;
14191;SDS011;7177;48.572;7.838;2023-03-21T07:11:29;7.75;;;6.30;;
14191;SDS011;7177;48.572;7.838;2023-03-21T07:13:55;8.30;;;6.80;;
14191;SDS011;7177;48.572;7.838;2023-03-21T07:16:21;8.13;;;6.30;;
14191;SDS011;7177;48.572;7.838;2023-03-21T07:18:48;7.83;;;5.97;;
14191;SDS011;7177;48.572;7.838;2023-03-21T07:21:14;9.40;;;6.07;;
14191;SDS011;7177;48.572;7.838;2023-03-21T07:23:40;7.67;;;5.37;;
14191;SDS011;7177;48.572;7.838;2023-03-21T07:26:06;8.57;;;5.87;;
14191;SDS011;7177;48.572;7.838;2023-03-21T07:28:31;12.73;;;6.10;;
14191;SDS011;7177;48.572;7.838;2023-03-21T07:30:58;9.00;;;6.60;;
14191;SDS011;7177;48.572;7.838;2023-03-21T07:33:26;7.27;;;5.43;;
14191;SDS011;7177;48.572;7.838;2023-03-21T07:35:52;7.97;;;6.10;;
14191;SDS011;7177;48.572;7.838;2023-03-21T07:38:20;11.10;;;6.80;;
14191;SDS011;7177;48.572;7.838;2023-03-21T07:40:46;8.17;;;6.63;;
14191;SDS011;7177;48.572;7.838;2023-03-21T07:43:12;7.87;;;6.10;;
14191;SDS011;7177;48.572;7.838;2023-03-21T07:45:38;10.70;;;5.67;;
14191;SDS011;7177;48.572;7.838;2023-03-21T07:48:04;9.97;;;5.70;;
14191;SDS011;7177;48.572;7.838;2023-03-21T07:50:30;7.40;;;4.80;;
14191;SDS011;7177;48.572;7.838;2023-03-21T07:52:56;8.60;;;4.93;;
14191;SDS011;7177;48.572;7.838;2023-03-21T07:55:21;11.57;;;4.93;;
14191;SDS011;7177;48.572;7.838;2023-03-21T07:57:50;6.63;;;4.63;;
14191;SDS011;7177;48.572;7.838;2023-03-21T08:00:16;5.47;;;4.17;;
14191;SDS011;7177;48.572;7.838;2023-03-21T08:02:47;5.53;;;4.60;;
14191;SDS011;7177;48.572;7.838;2023-03-21T08:05:14;5.93;;;4.80;;
14191;SDS011;7177;48.572;7.838;2023-03-21T08:07:42;6.50;;;4.73;;
14191;SDS011;7177;48.572;7.838;2023-03-21T08:10:08;5.70;;;4.83;;
14191;SDS011;7177;48.572;7.838;2023-03-21T08:12:35;5.73;;;4.60;;
14191;SDS011;7177;48.572;7.838;2023-03-21T08:15:01;8.07;;;4.60;;
14191;SDS011;7177;48.572;7.838;2023-03-21T08:17:26;7.37;;;4.80;;
14191;SDS011;7177;48.572;7.838;2023-03-21T08:19:52;6.03;;;4.87;;
14191;SDS011;7177;48.572;7.838;2023-03-21T08:22:17;6.53;;;4.73;;
14191;SDS011;7177;48.572;7.838;2023-03-21T08:24:43;6.73;;;5.40;;
14191;SDS011;7177;48.572;7.838;2023-03-21T08:27:08;7.87;;;5.67;;
14191;SDS011;7177;48.572;7.838;2023-03-21T08:29:34;11.07;;;5.70;;
14191;SDS011;7177;48.572;7.838;2023-03-21T08:32:04;7.33;;;6.53;;
14191;SDS011;7177;48.572;7.838;2023-03-21T08:34:30;7.17;;;6.03;;
14191;SDS011;7177;48.572;7.838;2023-03-21T08:36:56;7.40;;;5.50;;
14191;SDS011;7177;48.572;7.838;2023-03-21T08:39:21;7.83;;;6.03;;
14191;SDS011;7177;48.572;7.838;2023-03-21T08:41:48;9.27;;;5.50;;
14191;SDS011;7177;48.572;7.838;2023-03-21T08:44:14;7.43;;;5.23;;
14191;SDS011;7177;48.572;7.838;2023-03-21T08:46:41;8.60;;;5.30;;
14191;SDS011;7177;48.572;7.838;2023-03-21T08:49:06;6.73;;;5.30;;
14191;SDS011;7177;48.572;7.838;2023-03-21T08:51:32;6.37;;;5.43;;
14191;SDS011;7177;48.572;7.838;2023-03-21T08:53:57;7.60;;;5.47;;
14191;SDS011;7177;48.572;7.838;2023-03-21T08:56:23;6.00;;;5.20;;
14191;SDS011;7177;48.572;7.838;2023-03-21T08:58:49;7.63;;;5.13;;
14191;SDS011;7177;48.572;7.838;2023-03-21T09:01:14;6.30;;;4.73;;
14191;SDS011;7177;48.572;7.838;2023-03-21T09:03:40;7.10;;;5.83;;
14191;SDS011;7177;48.572;7.838;2023-03-21T09:06:07;11.90;;;6.10;;
14191;SDS011;7177;48.572;7.838;2023-03-21T09:08:35;8.27;;;5.80;;
14191;SDS011;7177;48.572;7.838;2023-03-21T09:11:01;10.50;;;7.00;;
14191;SDS011;7177;48.572;7.838;2023-03-21T09:13:27;9.03;;;6.13;;
14191;SDS011;7177;48.572;7.838;2023-03-21T09:15:53;7.47;;;5.20;;
14191;SDS011;7177;48.572;7.838;2023-03-21T09:18:19;5.87;;;4.80;;
14191;SDS011;7177;48.572;7.838;2023-03-21T09:20:46;9.00;;;4.70;;
14191;SDS011;7177;48.572;7.838;2023-03-21T09:23:14;8.10;;;4.40;;
14191;SDS011;7177;48.572;7.838;2023-03-21T09:25:40;10.93;;;5.17;;
14191;SDS011;7177;48.572;7.838;2023-03-21T09:28:06;8.90;;;6.10;;
14191;SDS011;7177;48.572;7.838;2023-03-21T09:30:32;10.50;;;6.93;;
14191;SDS011;7177;48.572;7.838;2023-03-21T09:33:03;7.87;;;5.70;;
14191;SDS011;7177;48.572;7.838;2023-03-21T09:35:32;9.70;;;4.77;;
14191;SDS011;7177;48.572;7.838;2023-03-21T09:37:58;7.20;;;4.53;;
14191;SDS011;7177;48.572;7.838;2023-03-21T09:40:40;6.13;;;4.30;;
14191;SDS011;7177;48.572;7.838;2023-03-21T09:48:59;5.97;;;4.20;;
14191;SDS011;7177;48.572;7.838;2023-03-21T09:51:35;7.13;;;4.43;;
14191;SDS011;7177;48.572;7.838;2023-03-21T09:54:12;5.20;;;4.40;;
14191;SDS011;7177;48.572;7.838;2023-03-21T09:56:41;8.53;;;4.63;;
14191;SDS011;7177;48.572;7.838;2023-03-21T09:59:09;7.93;;;4.80;;
14191;SDS011;7177;48.572;7.838;2023-03-21T10:02:25;4.67;;;4.13;;
14191;SDS011;7177;48.572;7.838;2023-03-21T10:07:55;5.70;;;5.03;;
14191;SDS011;7177;48.572;7.838;2023-03-21T10:10:29;8.30;;;5.03;;
14191;SDS011;7177;48.572;7.838;2023-03-21T10:13:00;8.43;;;5.00;;
14191;SDS011;7177;48.572;7.838;2023-03-21T10:15:26;8.50;;;4.70;;
14191;SDS011;7177;48.572;7.838;2023-03-21T10:20:27;7.10;;;5.10;;
14191;SDS011;7177;48.572;7.838;2023-03-21T10:22:56;6.77;;;4.47;;
14191;SDS011;7177;48.572;7.838;2023-03-21T10:25:35;7.47;;;5.67;;
14191;SDS011;7177;48.572;7.838;2023-03-21T10:28:04;9.93;;;5.40;;
14191;SDS011;7177;48.572;7.838;2023-03-21T10:33:15;6.27;;;5.10;;
14191;SDS011;7177;48.572;7.838;2023-03-21T10:35:45;6.57;;;5.17;;
14191;SDS011;7177;48.572;7.838;2023-03-21T10:38:16;5.83;;;5.23;;
14191;SDS011;7177;48.572;7.838;2023-03-21T10:40:43;8.87;;;5.20;;
14191;SDS011;7177;48.572;7.838;2023-03-21T10:43:17;6.20;;;5.20;;
14191;SDS011;7177;48.572;7.838;2023-03-21T10:45:54;8.10;;;5.40;;
14191;SDS011;7177;48.572;7.838;2023-03-21T10:48:20;5.43;;;4.80;;
14191;SDS011;7177;48.572;7.838;2023-03-21T10:50:48;5.63;;;4.87;;
14191;SDS011;7177;48.572;7.838;2023-03-21T10:53:29;6.60;;;5.00;;
14191;SDS011;7177;48.572;7.838;2023-03-21T10:55:59;6.37;;;4.90;;
14191;SDS011;7177;48.572;7.838;2023-03-21T10:58:29;7.03;;;4.70;;
14191;SDS011;7177;48.572;7.838;2023-03-21T11:01:02;7.33;;;5.50;;
14191;SDS011;7177;48.572;7.838;2023-03-21T11:03:32;7.90;;;5.00;;
14191;SDS011;7177;48.572;7.838;2023-03-21T11:06:04;4.93;;;4.40;;
14191;SDS011;7177;48.572;7.838;2023-03-21T11:08:40;5.57;;;3.97;;
14191;SDS011;7177;48.572;7.838;2023-03-21T11:11:11;5.67;;;3.90;;
14191;SDS011;7177;48.572;7.838;2023-03-21T11:13:45;4.57;;;3.60;;
14191;SDS011;7177;48.572;7.838;2023-03-21T11:16:39;3.57;;;3.27;;
14191;SDS011;7177;48.572;7.838;2023-03-21T11:19:28;5.50;;;3.80;;
14191;SDS011;7177;48.572;7.838;2023-03-21T11:22:03;5.27;;;3.80;;
14191;SDS011;7177;48.572;7.838;2023-03-21T11:24:30;5.07;;;4.23;;
14191;SDS011;7177;48.572;7.838;2023-03-21T11:26:57;5.17;;;3.90;;
14191;SDS011;7177;48.572;7.838;2023-03-21T11:29:33;6.17;;;3.73;;
14191;SDS011;7177;48.572;7.838;2023-03-21T11:32:45;6.03;;;4.03;;
14191;SDS011;7177;48.572;7.838;2023-03-21T11:35:00;5.33;;;4.37;;
14191;SDS011;7177;48.572;7.838;2023-03-21T11:37:31;4.20;;;3.80;;
14191;SDS011;7177;48.572;7.838;2023-03-21T11:40:06;6.37;;;3.50;;
14191;SDS011;7177;48.572;7.838;2023-03-21T11:42:39;5.77;;;3.10;;
14191;SDS011;7177;48.572;7.838;2023-03-21T11:45:12;5.63;;;3.60;;
14191;SDS011;7177;48.572;7.838;2023-03-21T11:47:46;6.50;;;3.43;;
14191;SDS011;7177;48.572;7.838;2023-03-21T11:55:53;4.50;;;3.30;;
14191;SDS011;7177;48.572;7.838;2023-03-21T12:03:38;5.53;;;4.07;;
14191;SDS011;7177;48.572;7.838;2023-03-21T12:12:08;5.63;;;4.00;;
14191;SDS011;7177;48.572;7.838;2023-03-21T12:17:53;6.27;;;4.17;;
14191;SDS011;7177;48.572;7.838;2023-03-21T12:20:51;7.00;;;4.90;;
14191;SDS011;7177;48.572;7.838;2023-03-21T12:23:32;5.13;;;4.10;;
14191;SDS011;7177;48.572;7.838;2023-03-21T12:26:24;8.20;;;3.97;;
14191;SDS011;7177;48.572;7.838;2023-03-21T12:29:07;4.93;;;3.33;;
14191;SDS011;7177;48.572;7.838;2023-03-21T12:34:30;5.87;;;3.67;;
14191;SDS011;7177;48.572;7.838;2023-03-21T12:45:51;5.83;;;3.53;;
14191;SDS011;7177;48.572;7.838;2023-03-21T12:50:51;5.50;;;3.53;;
14191;SDS011;7177;48.572;7.838;2023-03-21T12:56:18;3.43;;;3.03;;
14191;SDS011;7177;48.572;7.838;2023-03-21T12:58:53;3.80;;;3.30;;
14191;SDS011;7177;48.572;7.838;2023-03-21T13:01:38;3.90;;;2.90;;
14191;SDS011;7177;48.572;7.838;2023-03-21T13:04:11;3.70;;;3.17;;
14191;SDS011;7177;48.572;7.838;2023-03-21T13:06:55;4.20;;;3.07;;
14191;SDS011;7177;48.572;7.838;2023-03-21T13:09:35;5.00;;;3.37;;
14191;SDS011;7177;48.572;7.838;2023-03-21T13:12:18;4.10;;;3.10;;
14191;SDS011;7177;48.572;7.838;2023-03-21T13:20:56;3.93;;;2.60;;
14191;SDS011;7177;48.572;7.838;2023-03-21T13:23:24;6.10;;;2.93;;
14191;SDS011;7177;48.572;7.838;2023-03-21T13:25:57;3.87;;;2.87;;
14191;SDS011;7177;48.572;7.838;2023-03-21T13:28:29;5.63;;;3.43;;
14191;SDS011;7177;48.572;7.838;2023-03-21T13:33:49;6.00;;;3.33;;
14191;SDS011;7177;48.572;7.838;2023-03-21T13:36:24;5.23;;;3.20;;
14191;SDS011;7177;48.572;7.838;2023-03-21T13:38:58;4.33;;;2.73;;
14191;SDS011;7177;48.572;7.838;2023-03-21T13:41:30;6.03;;;3.20;;
14191;SDS011;7177;48.572;7.838;2023-03-21T13:54:01;6.00;;;3.30;;
14191;SDS011;7177;48.572;7.838;2023-03-21T13:59:18;3.03;;;2.40;;
14191;SDS011;7177;48.572;7.838;2023-03-21T14:04:36;4.93;;;2.97;;
14191;SDS011;7177;48.572;7.838;2023-03-21T14:07:13;4.20;;;2.47;;
14191;SDS011;7177;48.572;7.838;2023-03-21T14:09:46;4.33;;;2.47;;
14191;SDS011;7177;48.572;7.838;2023-03-21T14:12:16;3.90;;;2.83;;
14191;SDS011;7177;48.572;7.838;2023-03-21T14:17:48;3.47;;;2.80;;
14191;SDS011;7177;48.572;7.838;2023-03-21T14:20:25;5.97;;;2.93;;
14191;SDS011;7177;48.572;7.838;2023-03-21T14:22:55;5.03;;;2.90;;
14191;SDS011;7177;48.572;7.838;2023-03-21T14:25:21;6.40;;;2.90;;
14191;SDS011;7177;48.572;7.838;2023-03-21T14:27:51;4.10;;;2.90;;
14191;SDS011;7177;48.572;7.838;2023-03-21T14:32:57;5.27;;;2.80;;
14191;SDS011;7177;48.572;7.838;2023-03-21T14:35:27;8.57;;;2.93;;
14191;SDS011;7177;48.572;7.838;2023-03-21T14:38:04;5.83;;;2.90;;
14191;SDS011;7177;48.572;7.838;2023-03-21T14:40:34;5.00;;;3.13;;
14191;SDS011;7177;48.572;7.838;2023-03-21T14:43:06;4.83;;;2.77;;
14191;SDS011;7177;48.572;7.838;2023-03-21T14:45:33;3.23;;;2.70;;
14191;SDS011;7177;48.572;7.838;2023-03-21T14:48:03;3.97;;;2.87;;
14191;SDS011;7177;48.572;7.838;2023-03-21T14:50:36;4.43;;;2.67;;
14191;SDS011;7177;48.572;7.838;2023-03-21T14:53:07;3.53;;;2.50;;
14191;SDS011;7177;48.572;7.838;2023-03-21T14:55:46;4.20;;;2.80;;
14191;SDS011;7177;48.572;7.838;2023-03-21T14:58:26;3.50;;;2.63;;
14191;SDS011;7177;48.572;7.838;2023-03-21T15:00:54;4.67;;;2.80;;
14191;SDS011;7177;48.572;7.838;2023-03-21T15:03:22;4.73;;;2.50;;
14191;SDS011;7177;48.572;7.838;2023-03-21T15:05:51;10.00;;;3.90;;
14191;SDS011;7177;48.572;7.838;2023-03-21T15:08:18;6.77;;;3.20;;
14191;SDS011;7177;48.572;7.838;2023-03-21T15:10:56;5.33;;;2.33;;
14191;SDS011;7177;48.572;7.838;2023-03-21T15:13:27;2.93;;;2.20;;
14191;SDS011;7177;48.572;7.838;2023-03-21T15:16:01;4.03;;;2.70;;
14191;SDS011;7177;48.572;7.838;2023-03-21T15:18:32;4.30;;;2.80;;
14191;SDS011;7177;48.572;7.838;2023-03-21T15:21:00;7.93;;;5.00;;
14191;SDS011;7177;48.572;7.838;2023-03-21T15:23:34;3.23;;;2.70;;
14191;SDS011;7177;48.572;7.838;2023-03-21T15:26:05;3.23;;;2.17;;
14191;SDS011;7177;48.572;7.838;2023-03-21T15:28:33;3.07;;;2.30;;
14191;SDS011;7177;48.572;7.838;2023-03-21T15:31:00;3.23;;;2.20;;
14191;SDS011;7177;48.572;7.838;2023-03-21T15:33:26;4.03;;;2.30;;
14191;SDS011;7177;48.572;7.838;2023-03-21T15:35:52;2.37;;;2.13;;
14191;SDS011;7177;48.572;7.838;2023-03-21T15:38:21;5.10;;;2.37;;
14191;SDS011;7177;48.572;7.838;2023-03-21T15:41:11;4.17;;;2.20;;
14191;SDS011;7177;48.572;7.838;2023-03-21T15:43:43;3.47;;;2.53;;
14191;SDS011;7177;48.572;7.838;2023-03-21T15:46:24;2.43;;;2.10;;
14191;SDS011;7177;48.572;7.838;2023-03-21T15:49:05;3.67;;;2.67;;
14191;SDS011;7177;48.572;7.838;2023-03-21T15:51:45;4.30;;;2.50;;
14191;SDS011;7177;48.572;7.838;2023-03-21T15:54:22;4.80;;;2.80;;
14191;SDS011;7177;48.572;7.838;2023-03-21T15:56:58;4.17;;;2.70;;
14191;SDS011;7177;48.572;7.838;2023-03-21T15:59:34;3.20;;;2.70;;
14191;SDS011;7177;48.572;7.838;2023-03-21T16:02:03;3.97;;;2.50;;
14191;SDS011;7177;48.572;7.838;2023-03-21T16:04:52;3.77;;;2.53;;
14191;SDS011;7177;48.572;7.838;2023-03-21T16:07:46;3.83;;;2.30;;
14191;SDS011;7177;48.572;7.838;2023-03-21T16:10:29;3.33;;;2.40;;
14191;SDS011;7177;48.572;7.838;2023-03-21T16:13:00;2.80;;;2.50;;
14191;SDS011;7177;48.572;7.838;2023-03-21T16:15:26;4.27;;;3.20;;
14191;SDS011;7177;48.572;7.838;2023-03-21T16:17:53;3.50;;;2.90;;
14191;SDS011;7177;48.572;7.838;2023-03-21T16:20:24;3.40;;;2.83;;
14191;SDS011;7177;48.572;7.838;2023-03-21T16:22:52;3.00;;;2.37;;
14191;SDS011;7177;48.572;7.838;2023-03-21T16:25:17;2.63;;;2.40;;
14191;SDS011;7177;48.572;7.838;2023-03-21T16:27:44;3.20;;;2.63;;
14191;SDS011;7177;48.572;7.838;2023-03-21T16:30:11;3.70;;;2.70;;
14191;SDS011;7177;48.572;7.838;2023-03-21T16:32:38;3.43;;;2.40;;
14191;SDS011;7177;48.572;7.838;2023-03-21T16:35:04;4.47;;;2.77;;
14191;SDS011;7177;48.572;7.838;2023-03-21T16:37:31;2.80;;;2.30;;
14191;SDS011;7177;48.572;7.838;2023-03-21T16:39:56;4.90;;;2.73;;
14191;SDS011;7177;48.572;7.838;2023-03-21T16:42:22;7.07;;;2.97;;
14191;SDS011;7177;48.572;7.838;2023-03-21T16:44:47;4.27;;;2.90;;
14191;SDS011;7177;48.572;7.838;2023-03-21T16:47:13;4.43;;;3.07;;
14191;SDS011;7177;48.572;7.838;2023-03-21T16:49:41;3.20;;;2.63;;
14191;SDS011;7177;48.572;7.838;2023-03-21T16:52:08;3.57;;;2.73;;
14191;SDS011;7177;48.572;7.838;2023-03-21T16:54:35;4.33;;;2.70;;
14191;SDS011;7177;48.572;7.838;2023-03-21T16:57:01;4.17;;;2.70;;
14191;SDS011;7177;48.572;7.838;2023-03-21T16:59:31;3.30;;;2.90;;
14191;SDS011;7177;48.572;7.838;2023-03-21T17:01:57;3.50;;;3.07;;
14191;SDS011;7177;48.572;7.838;2023-03-21T17:04:23;4.13;;;2.70;;
14191;SDS011;7177;48.572;7.838;2023-03-21T17:06:52;6.53;;;3.30;;
14191;SDS011;7177;48.572;7.838;2023-03-21T17:09:20;4.00;;;3.03;;